Time;durP1;ratioP1;P1;durP2;ratioP2;P2;SDS_P1;SDS_P2;PMS_P1;PMS_P2;Temp;Humidity;BMP_temperature;BMP_pressure;BME280_temperature;BME280_humidity;BME280_pressure;Samples;Min_cycle;Max_cycle;Signal;HPM_P1;HPM_P2
2022/10/20 00:02:04;;;;;;;274.97;16.57;;;;;;;;;;8260733;28;20030;-62
2022/10/20 00:06:05;;;;;;;520.08;23.45;;;;;;;;;;8259778;28;20788;-62
2022/10/20 00:10:05;;;;;;;209.30;15.80;;;;;;;;;;8263825;28;20017;-62
2022/10/20 00:14:06;;;;;;;283.17;17.08;;;;;;;;;;8267909;28;20030;-62
2022/10/20 00:18:06;;;;;;;110.97;12.13;;;;;;;;;;8267093;28;20058;-62
2022/10/20 00:22:06;;;;;;;71.82;10.40;;;;;;;;;;8266510;28;20871;-62
2022/10/20 00:26:07;;;;;;;79.15;11.07;;;;;;;;;;8265287;28;20524;-62
2022/10/20 00:30:08;;;;;;;151.20;11.32;;;;;;;;;;8264901;28;20167;-63
2022/10/20 00:34:08;;;;;;;49.78;9.35;;;;;;;;;;8266036;28;20065;-62
2022/10/20 00:38:08;;;;;;;151.50;10.88;;;;;;;;;;8267510;28;20041;-62
2022/10/20 00:42:13;;;;;;;85.25;10.88;;;;;;;;;;8264558;28;20030;-62
2022/10/20 00:46:15;;;;;;;106.57;10.88;;;;;;;;;;8265834;28;20537;-62
2022/10/20 00:50:15;;;;;;;91.97;10.63;;;;;;;;;;8265345;28;20966;-62
2022/10/20 00:54:18;;;;;;;25.75;9.68;;;;;;;;;;8264219;28;20030;-62
2022/10/20 00:58:18;;;;;;;133.13;11.15;;;;;;;;;;8265497;28;20029;-62
2022/10/20 01:02:18;;;;;;;154.77;11.55;;;;;;;;;;8263420;28;20037;-62
2022/10/20 01:06:21;;;;;;;139.13;10.70;;;;;;;;;;8266887;28;20120;-62
2022/10/20 01:10:22;;;;;;;93.38;10.82;;;;;;;;;;8263041;28;20615;-63
2022/10/20 01:14:41;;;;;;;40.58;9.20;;;;;;;;;;8263699;28;20467;-62
2022/10/20 01:19:06;;;;;;;31.58;9.38;;;;;;;;;;8262919;28;20144;-62
2022/10/20 01:23:29;;;;;;;54.65;8.73;;;;;;;;;;8264588;28;20183;-62
2022/10/20 01:27:31;;;;;;;40.33;8.57;;;;;;;;;;8263834;28;20546;-62
2022/10/20 01:31:38;;;;;;;165.88;11.32;;;;;;;;;;8264483;28;20726;-62
2022/10/20 01:35:46;;;;;;;45.72;9.32;;;;;;;;;;8265214;28;20029;-62
2022/10/20 01:39:56;;;;;;;182.98;12.18;;;;;;;;;;8263607;28;20034;-62
2022/10/20 01:43:56;;;;;;;77.63;10.20;;;;;;;;;;8264288;28;21295;-62
2022/10/20 01:47:58;;;;;;;13.15;8.93;;;;;;;;;;8263342;28;20217;-62
2022/10/20 01:51:59;;;;;;;21.67;8.95;;;;;;;;;;8263796;28;20021;-62
2022/10/20 01:56:00;;;;;;;10.38;9.13;;;;;;;;;;8264471;28;20026;-62
2022/10/20 02:00:03;;;;;;;11.05;8.57;;;;;;;;;;8263280;28;20022;-62
2022/10/20 02:04:04;;;;;;;11.98;9.05;;;;;;;;;;8263597;28;20033;-62
2022/10/20 02:08:12;;;;;;;10.95;9.02;;;;;;;;;;8263682;28;20025;-62
2022/10/20 02:12:15;;;;;;;14.02;8.57;;;;;;;;;;8262941;28;20025;-62
2022/10/20 02:16:19;;;;;;;10.32;7.53;;;;;;;;;;8262238;28;20041;-62
2022/10/20 02:20:20;;;;;;;11.27;8.52;;;;;;;;;;8261059;28;20423;-62
2022/10/20 02:24:21;;;;;;;12.93;9.15;;;;;;;;;;8262530;28;20368;-62
2022/10/20 02:28:22;;;;;;;15.90;8.70;;;;;;;;;;8263036;28;20582;-62
2022/10/20 02:32:23;;;;;;;13.38;9.20;;;;;;;;;;8260197;28;20041;-62
2022/10/20 02:36:27;;;;;;;11.70;8.18;;;;;;;;;;8262045;28;20448;-62
2022/10/20 02:40:27;;;;;;;16.17;8.07;;;;;;;;;;8261415;28;20046;-62
2022/10/20 02:44:28;;;;;;;11.30;7.93;;;;;;;;;;8262662;28;20040;-62
2022/10/20 02:48:28;;;;;;;16.23;8.52;;;;;;;;;;8260384;28;20272;-62
2022/10/20 02:52:28;;;;;;;10.98;7.40;;;;;;;;;;8262769;28;20403;-62
2022/10/20 02:56:28;;;;;;;9.68;7.65;;;;;;;;;;8261283;28;20108;-62
2022/10/20 03:00:30;;;;;;;9.43;7.00;;;;;;;;;;8260218;28;20517;-62
2022/10/20 03:04:30;;;;;;;10.88;7.15;;;;;;;;;;8262211;28;20033;-62
2022/10/20 03:08:30;;;;;;;9.63;7.53;;;;;;;;;;8262376;28;20026;-62
2022/10/20 03:12:30;;;;;;;8.90;7.13;;;;;;;;;;8261866;28;20747;-62
2022/10/20 03:16:30;;;;;;;8.02;6.35;;;;;;;;;;8261114;28;20418;-62
2022/10/20 03:20:31;;;;;;;10.52;7.45;;;;;;;;;;8261304;28;20065;-62
2022/10/20 03:24:31;;;;;;;10.60;6.82;;;;;;;;;;8261829;28;20371;-62
2022/10/20 03:28:31;;;;;;;7.70;6.90;;;;;;;;;;8261880;28;20920;-62
2022/10/20 03:32:31;;;;;;;9.73;6.82;;;;;;;;;;8259826;28;20045;-62
2022/10/20 03:36:32;;;;;;;9.10;6.82;;;;;;;;;;8262856;28;20889;-62
2022/10/20 03:40:32;;;;;;;9.75;6.53;;;;;;;;;;8260661;28;20033;-62
2022/10/20 03:44:32;;;;;;;7.55;5.90;;;;;;;;;;8265570;28;20014;-62
2022/10/20 03:48:32;;;;;;;7.60;6.32;;;;;;;;;;8268594;28;20107;-62
2022/10/20 03:52:32;;;;;;;7.93;6.03;;;;;;;;;;8268261;28;20076;-62
2022/10/20 03:56:33;;;;;;;11.20;6.85;;;;;;;;;;8267691;28;20561;-62
2022/10/20 04:00:33;;;;;;;8.68;6.82;;;;;;;;;;8266072;28;20628;-62
2022/10/20 04:04:33;;;;;;;11.13;5.97;;;;;;;;;;8266789;28;20045;-62
2022/10/20 04:08:33;;;;;;;10.45;7.00;;;;;;;;;;8267675;28;20025;-62
2022/10/20 04:12:34;;;;;;;10.20;7.05;;;;;;;;;;8266666;28;20030;-62
2022/10/20 04:16:34;;;;;;;9.77;6.78;;;;;;;;;;8267726;28;20428;-62
2022/10/20 04:20:34;;;;;;;10.23;6.68;;;;;;;;;;8266032;28;20068;-62
2022/10/20 04:24:34;;;;;;;8.63;6.70;;;;;;;;;;8266104;28;20057;-62
2022/10/20 04:28:35;;;;;;;6.78;6.05;;;;;;;;;;8267558;28;20905;-62
2022/10/20 04:32:35;;;;;;;9.85;7.03;;;;;;;;;;8266623;28;20041;-62
2022/10/20 04:36:36;;;;;;;13.05;6.57;;;;;;;;;;8265639;28;20029;-62
2022/10/20 04:40:36;;;;;;;10.57;7.07;;;;;;;;;;8264035;28;20215;-62
2022/10/20 04:44:36;;;;;;;10.05;6.78;;;;;;;;;;8266815;28;20483;-62
2022/10/20 04:48:36;;;;;;;10.13;6.30;;;;;;;;;;8263705;28;20473;-62
2022/10/20 04:52:37;;;;;;;9.27;6.60;;;;;;;;;;8266468;28;20141;-62
2022/10/20 04:56:37;;;;;;;7.53;6.00;;;;;;;;;;8264695;28;20364;-62
2022/10/20 05:00:37;;;;;;;9.50;6.47;;;;;;;;;;8265021;28;20088;-62
2022/10/20 05:04:37;;;;;;;10.52;6.55;;;;;;;;;;8265295;28;20068;-62
2022/10/20 05:08:38;;;;;;;7.55;5.82;;;;;;;;;;8266327;28;20522;-62
2022/10/20 05:12:38;;;;;;;7.80;5.75;;;;;;;;;;8265042;28;20034;-62
2022/10/20 05:16:38;;;;;;;6.93;6.03;;;;;;;;;;8263644;28;20310;-62
2022/10/20 05:20:38;;;;;;;7.57;6.03;;;;;;;;;;8263848;28;20029;-62
2022/10/20 05:24:39;;;;;;;8.02;5.97;;;;;;;;;;8264706;28;20057;-62
2022/10/20 05:28:42;;;;;;;7.20;6.05;;;;;;;;;;8265633;28;20151;-62
2022/10/20 05:32:42;;;;;;;10.30;6.47;;;;;;;;;;8261154;28;20042;-63
2022/10/20 05:36:42;;;;;;;8.85;5.55;;;;;;;;;;8261759;28;20606;-63
2022/10/20 05:40:42;;;;;;;7.78;6.38;;;;;;;;;;8261361;28;20333;-63
2022/10/20 05:44:42;;;;;;;12.15;7.30;;;;;;;;;;8261175;28;20384;-62
2022/10/20 05:48:43;;;;;;;8.38;6.65;;;;;;;;;;8261890;28;20041;-62
2022/10/20 05:52:43;;;;;;;9.95;6.60;;;;;;;;;;8260204;28;20299;-63
2022/10/20 05:56:44;;;;;;;10.23;6.78;;;;;;;;;;8260705;28;20068;-62
2022/10/20 06:00:51;;;;;;;8.95;6.60;;;;;;;;;;8259974;28;20614;-63
2022/10/20 06:04:51;;;;;;;6.57;5.88;;;;;;;;;;8260743;28;20037;-63
2022/10/20 06:08:52;;;;;;;12.63;6.88;;;;;;;;;;8260978;28;20040;-62
2022/10/20 06:12:52;;;;;;;8.63;6.70;;;;;;;;;;8261120;28;20029;-63
2022/10/20 06:16:53;;;;;;;9.75;7.00;;;;;;;;;;8259628;28;20038;-63
2022/10/20 06:21:03;;;;;;;9.63;6.32;;;;;;;;;;8262086;28;20668;-63
2022/10/20 06:25:03;;;;;;;8.02;6.30;;;;;;;;;;8262241;28;20029;-63
2022/10/20 06:29:08;;;;;;;7.45;6.20;;;;;;;;;;8260937;28;20045;-63
2022/10/20 06:33:11;;;;;;;9.02;6.63;;;;;;;;;;8261506;28;20502;-62
2022/10/20 06:37:11;;;;;;;10.65;7.63;;;;;;;;;;8262445;28;20033;-62
2022/10/20 06:41:13;;;;;;;10.90;6.97;;;;;;;;;;8261206;28;20037;-62
2022/10/20 06:45:13;;;;;;;9.75;7.07;;;;;;;;;;8262753;28;20538;-63
2022/10/20 06:49:14;;;;;;;8.95;6.80;;;;;;;;;;8260668;28;20532;-62
2022/10/20 06:53:14;;;;;;;13.23;7.20;;;;;;;;;;8262775;28;20194;-62
2022/10/20 06:57:14;;;;;;;9.80;6.95;;;;;;;;;;8262837;28;20769;-62
2022/10/20 07:01:19;;;;;;;15.25;7.63;;;;;;;;;;8261664;28;20050;-62
2022/10/20 07:05:20;;;;;;;10.80;6.78;;;;;;;;;;8261794;28;20055;-62
2022/10/20 07:09:21;;;;;;;10.00;7.07;;;;;;;;;;8262231;28;20222;-62
2022/10/20 07:13:21;;;;;;;9.33;7.40;;;;;;;;;;8258123;28;20136;-62
2022/10/20 07:17:21;;;;;;;11.75;7.35;;;;;;;;;;8263074;28;20112;-62
2022/10/20 07:21:22;;;;;;;9.65;7.30;;;;;;;;;;8261649;28;20156;-62
2022/10/20 07:25:22;;;;;;;10.13;7.78;;;;;;;;;;8260980;28;20506;-62
2022/10/20 07:29:22;;;;;;;10.63;7.25;;;;;;;;;;8262029;28;20497;-62
2022/10/20 07:33:23;;;;;;;12.68;6.80;;;;;;;;;;8262008;28;20764;-62
2022/10/20 07:37:23;;;;;;;11.15;7.60;;;;;;;;;;8261703;28;20312;-62
2022/10/20 07:41:24;;;;;;;11.05;7.18;;;;;;;;;;8261273;28;20034;-62
2022/10/20 07:45:24;;;;;;;7.88;6.88;;;;;;;;;;8261279;28;20541;-62
2022/10/20 07:49:24;;;;;;;10.23;6.85;;;;;;;;;;8261358;28;20017;-62
2022/10/20 07:53:24;;;;;;;11.02;7.93;;;;;;;;;;8261040;28;20451;-62
2022/10/20 07:57:25;;;;;;;11.43;7.40;;;;;;;;;;8261006;28;20025;-62
2022/10/20 08:01:25;;;;;;;11.82;7.32;;;;;;;;;;8262062;28;20133;-62
2022/10/20 08:05:26;;;;;;;9.90;7.53;;;;;;;;;;8260908;28;20025;-62
2022/10/20 08:09:26;;;;;;;10.82;7.38;;;;;;;;;;8259260;28;20404;-61
2022/10/20 08:13:26;;;;;;;12.02;8.32;;;;;;;;;;8263469;28;20061;-62
2022/10/20 08:17:27;;;;;;;12.05;7.53;;;;;;;;;;8261252;28;20091;-62
2022/10/20 08:21:27;;;;;;;10.07;7.05;;;;;;;;;;8260596;28;20501;-62
2022/10/20 08:25:27;;;;;;;12.65;8.60;;;;;;;;;;8263077;28;20042;-62
2022/10/20 08:29:28;;;;;;;15.90;10.30;;;;;;;;;;8265482;28;20974;-62
2022/10/20 08:33:28;;;;;;;18.00;9.77;;;;;;;;;;8266150;28;20389;-63
2022/10/20 08:37:29;;;;;;;15.73;11.93;;;;;;;;;;8267778;28;20312;-62
2022/10/20 08:41:32;;;;;;;15.05;10.52;;;;;;;;;;8265698;28;20037;-62
2022/10/20 08:45:33;;;;;;;15.50;10.23;;;;;;;;;;8267541;28;20038;-62
2022/10/20 08:49:33;;;;;;;13.88;9.95;;;;;;;;;;8265428;28;20574;-63
2022/10/20 08:53:37;;;;;;;17.10;11.07;;;;;;;;;;8267603;28;20161;-62
2022/10/20 08:57:37;;;;;;;14.70;11.85;;;;;;;;;;8266938;28;20136;-63
2022/10/20 09:01:37;;;;;;;16.73;11.68;;;;;;;;;;8264777;28;20601;-62
2022/10/20 09:05:40;;;;;;;16.42;11.35;;;;;;;;;;8267371;28;20344;-62
2022/10/20 09:09:40;;;;;;;17.58;12.32;;;;;;;;;;8266645;28;20423;-63
2022/10/20 09:13:41;;;;;;;16.10;12.63;;;;;;;;;;8266109;28;20113;-62
2022/10/20 09:17:43;;;;;;;20.95;13.27;;;;;;;;;;8264014;28;20453;-62
2022/10/20 09:21:46;;;;;;;17.90;11.85;;;;;;;;;;8265122;28;20617;-63
2022/10/20 09:25:46;;;;;;;21.23;13.32;;;;;;;;;;8263084;28;20280;-62
2022/10/20 09:29:46;;;;;;;17.05;12.73;;;;;;;;;;8267165;28;20080;-63
2022/10/20 09:33:46;;;;;;;22.60;12.88;;;;;;;;;;8265105;28;20114;-62
2022/10/20 09:37:51;;;;;;;19.52;12.27;;;;;;;;;;8265800;28;20022;-63
2022/10/20 09:42:03;;;;;;;19.63;13.32;;;;;;;;;;8264291;28;20057;-63
2022/10/20 09:46:05;;;;;;;20.35;14.57;;;;;;;;;;8264912;28;20044;-63
2022/10/20 09:50:06;;;;;;;18.58;12.82;;;;;;;;;;8265175;28;20022;-62
2022/10/20 09:54:13;;;;;;;17.10;11.52;;;;;;;;;;8264644;28;20117;-62
2022/10/20 09:58:23;;;;;;;19.02;13.32;;;;;;;;;;8263938;28;20825;-62
2022/10/20 10:02:26;;;;;;;23.92;15.27;;;;;;;;;;8264636;28;20126;-62
2022/10/20 10:06:32;;;;;;;18.43;12.83;;;;;;;;;;8263922;28;20471;-62
2022/10/20 10:10:32;;;;;;;26.10;15.13;;;;;;;;;;8264715;28;20018;-62
2022/10/20 10:14:34;;;;;;;27.50;15.27;;;;;;;;;;8262878;28;20018;-63
2022/10/20 10:18:36;;;;;;;21.52;14.75;;;;;;;;;;8263812;28;20447;-62
2022/10/20 10:22:36;;;;;;;24.95;14.68;;;;;;;;;;8262004;28;20030;-62
2022/10/20 10:26:36;;;;;;;24.80;14.75;;;;;;;;;;8263460;28;20047;-62
2022/10/20 10:30:37;;;;;;;19.55;13.73;;;;;;;;;;8263667;28;20038;-62
2022/10/20 10:34:42;;;;;;;19.88;12.13;;;;;;;;;;8260622;28;20033;-62
2022/10/20 10:38:42;;;;;;;18.27;12.82;;;;;;;;;;8262635;28;20458;-62
2022/10/20 10:42:50;;;;;;;19.65;13.23;;;;;;;;;;8261319;28;20026;-62
2022/10/20 10:47:01;;;;;;;20.67;12.88;;;;;;;;;;8263263;28;20045;-62
2022/10/20 10:51:04;;;;;;;21.13;13.63;;;;;;;;;;8260355;28;20056;-62
2022/10/20 10:55:12;;;;;;;21.37;14.13;;;;;;;;;;8263461;28;20587;-62
2022/10/20 10:59:12;;;;;;;19.20;13.63;;;;;;;;;;8263927;28;20540;-62
2022/10/20 11:03:15;;;;;;;22.10;14.52;;;;;;;;;;8260141;28;20038;-62
2022/10/20 11:07:30;;;;;;;21.65;14.02;;;;;;;;;;8261811;28;20517;-62
2022/10/20 11:11:39;;;;;;;23.52;15.05;;;;;;;;;;8263129;28;20029;-62
2022/10/20 11:15:58;;;;;;;16.33;12.23;;;;;;;;;;8259916;28;20046;-62
2022/10/20 11:20:04;;;;;;;27.13;15.27;;;;;;;;;;8261943;28;20385;-62
2022/10/20 11:24:04;;;;;;;23.73;15.57;;;;;;;;;;8261105;28;20020;-62
2022/10/20 11:28:09;;;;;;;22.98;15.27;;;;;;;;;;8261214;28;20566;-62
2022/10/20 11:32:12;;;;;;;23.50;14.82;;;;;;;;;;8260685;28;20040;-62
2022/10/20 11:36:17;;;;;;;28.17;15.97;;;;;;;;;;8262226;28;20155;-62
2022/10/20 11:40:29;;;;;;;18.95;12.38;;;;;;;;;;8262192;28;20034;-63
2022/10/20 11:44:36;;;;;;;17.45;12.65;;;;;;;;;;8262440;28;20040;-62
2022/10/20 11:48:41;;;;;;;17.70;13.20;;;;;;;;;;8260541;28;20069;-62
2022/10/20 11:52:44;;;;;;;18.23;12.68;;;;;;;;;;8261333;28;20033;-63
2022/10/20 11:56:51;;;;;;;16.70;12.80;;;;;;;;;;8260734;28;20505;-63
2022/10/20 12:00:59;;;;;;;15.50;12.43;;;;;;;;;;8262675;28;20092;-63
2022/10/20 12:05:08;;;;;;;20.48;12.55;;;;;;;;;;8264863;28;20025;-63
2022/10/20 12:09:11;;;;;;;17.17;12.75;;;;;;;;;;8269033;28;20437;-62
2022/10/20 12:13:11;;;;;;;17.07;11.90;;;;;;;;;;8279797;28;20200;-63
2022/10/20 12:17:14;;;;;;;16.92;12.10;;;;;;;;;;8275778;28;20470;-63
2022/10/20 12:21:34;;;;;;;14.65;10.85;;;;;;;;;;8273342;28;20064;-63
2022/10/20 12:25:39;;;;;;;13.18;10.75;;;;;;;;;;8274010;28;20519;-63
2022/10/20 12:29:39;;;;;;;17.88;11.60;;;;;;;;;;8275263;28;20502;-63
2022/10/20 12:33:48;;;;;;;20.25;10.77;;;;;;;;;;8273606;28;20099;-63
2022/10/20 12:37:55;;;;;;;15.65;11.10;;;;;;;;;;8274119;28;20534;-63
2022/10/20 12:41:57;;;;;;;15.27;11.43;;;;;;;;;;8281154;28;20048;-63
2022/10/20 12:46:06;;;;;;;14.60;11.50;;;;;;;;;;8274376;28;20038;-63
2022/10/20 12:50:16;;;;;;;18.17;11.85;;;;;;;;;;8272850;28;20512;-63
2022/10/20 12:54:22;;;;;;;20.75;11.50;;;;;;;;;;8273884;28;20232;-63
2022/10/20 12:58:22;;;;;;;17.38;11.60;;;;;;;;;;8273399;28;20136;-63
2022/10/20 13:02:23;;;;;;;18.00;12.20;;;;;;;;;;8271422;28;20072;-63
2022/10/20 13:06:23;;;;;;;18.67;12.18;;;;;;;;;;8274057;28;21038;-63
2022/10/20 13:10:26;;;;;;;17.47;10.70;;;;;;;;;;8274696;28;20022;-63
2022/10/20 13:14:41;;;;;;;21.10;10.97;;;;;;;;;;8272802;28;20274;-63
2022/10/20 13:18:44;;;;;;;18.85;11.45;;;;;;;;;;8271818;28;20038;-63
2022/10/20 13:22:46;;;;;;;15.18;11.13;;;;;;;;;;8273535;28;20464;-63
2022/10/20 13:26:58;;;;;;;15.93;10.82;;;;;;;;;;8271633;28;20030;-63
2022/10/20 13:31:14;;;;;;;15.73;10.18;;;;;;;;;;8271282;28;20037;-63
2022/10/20 13:35:26;;;;;;;17.23;10.15;;;;;;;;;;8273402;28;20048;-63
2022/10/20 13:39:45;;;;;;;12.60;9.73;;;;;;;;;;8273621;28;20117;-63
2022/10/20 13:43:50;;;;;;;13.75;9.57;;;;;;;;;;8272204;28;20508;-63
2022/10/20 13:48:16;;;;;;;15.93;9.90;;;;;;;;;;8269411;28;20037;-63
2022/10/20 13:52:17;;;;;;;14.68;10.35;;;;;;;;;;8274658;28;20455;-63
2022/10/20 13:56:24;;;;;;;13.45;10.25;;;;;;;;;;8272142;28;20025;-63
2022/10/20 14:00:29;;;;;;;19.55;10.05;;;;;;;;;;8269991;28;20049;-63
2022/10/20 14:04:29;;;;;;;13.25;9.07;;;;;;;;;;8270221;28;20033;-62
2022/10/20 14:08:29;;;;;;;11.90;9.30;;;;;;;;;;8269419;28;20047;-62
2022/10/20 14:12:30;;;;;;;13.13;8.75;;;;;;;;;;8270182;28;20025;-62
2022/10/20 14:16:30;;;;;;;16.58;9.77;;;;;;;;;;8272092;28;20204;-62
2022/10/20 14:20:31;;;;;;;14.70;10.17;;;;;;;;;;8270605;28;20446;-63
2022/10/20 14:24:33;;;;;;;15.52;10.15;;;;;;;;;;8269289;28;20292;-62
2022/10/20 14:28:34;;;;;;;15.95;10.32;;;;;;;;;;8269497;28;20034;-63
2022/10/20 14:32:38;;;;;;;15.63;11.18;;;;;;;;;;8269547;28;20060;-63
2022/10/20 14:36:40;;;;;;;15.65;11.30;;;;;;;;;;8269307;28;20031;-63
2022/10/20 14:40:40;;;;;;;15.55;10.30;;;;;;;;;;8271323;28;20361;-63
2022/10/20 14:44:42;;;;;;;12.48;10.20;;;;;;;;;;8270230;28;20029;-62
2022/10/20 14:48:43;;;;;;;17.23;10.27;;;;;;;;;;8269121;28;20069;-62
2022/10/20 14:52:43;;;;;;;18.85;11.05;;;;;;;;;;8268291;28;20781;-63
2022/10/20 14:56:47;;;;;;;15.25;11.75;;;;;;;;;;8267312;28;20030;-62
2022/10/20 15:00:47;;;;;;;22.27;14.53;;;;;;;;;;8270640;28;20057;-62
2022/10/20 15:04:50;;;;;;;17.48;12.25;;;;;;;;;;8270151;28;20057;-62
2022/10/20 15:08:52;;;;;;;16.50;10.35;;;;;;;;;;8270227;28;20096;-62
2022/10/20 15:12:53;;;;;;;15.38;11.15;;;;;;;;;;8269430;28;20034;-63
2022/10/20 15:16:53;;;;;;;14.80;10.73;;;;;;;;;;8267834;28;20152;-62
2022/10/20 15:20:54;;;;;;;15.65;11.80;;;;;;;;;;8270849;28;20573;-63
2022/10/20 15:24:54;;;;;;;18.73;10.60;;;;;;;;;;8270702;28;20029;-62
2022/10/20 15:28:54;;;;;;;12.45;9.85;;;;;;;;;;8269821;28;20038;-63
2022/10/20 15:32:54;;;;;;;14.35;9.70;;;;;;;;;;8268833;28;20048;-63
2022/10/20 15:36:55;;;;;;;14.97;10.17;;;;;;;;;;8269591;28;20032;-63
2022/10/20 15:40:55;;;;;;;14.23;10.33;;;;;;;;;;8274482;28;20276;-63
2022/10/20 15:44:55;;;;;;;22.88;11.93;;;;;;;;;;8275889;28;20025;-62
2022/10/20 15:48:55;;;;;;;20.13;11.95;;;;;;;;;;8272746;28;20038;-62
2022/10/20 15:52:55;;;;;;;16.42;12.13;;;;;;;;;;8274983;28;20440;-62
2022/10/20 15:56:56;;;;;;;18.35;11.68;;;;;;;;;;8275690;28;20033;-62
2022/10/20 16:00:56;;;;;;;19.77;12.38;;;;;;;;;;8273579;28;20052;-62
2022/10/20 16:04:56;;;;;;;155.18;16.88;;;;;;;;;;8274691;28;20080;-62
2022/10/20 16:08:56;;;;;;;65.43;14.07;;;;;;;;;;8276127;28;20104;-62
2022/10/20 16:12:56;;;;;;;18.80;13.32;;;;;;;;;;8274260;28;21353;-62
2022/10/20 16:16:57;;;;;;;85.63;14.60;;;;;;;;;;8276378;28;20120;-62
2022/10/20 16:20:57;;;;;;;199.10;16.40;;;;;;;;;;8270970;28;20107;-62
2022/10/20 16:25:00;;;;;;;95.50;15.20;;;;;;;;;;8273614;28;20385;-62
2022/10/20 16:29:00;;;;;;;31.92;12.60;;;;;;;;;;8274466;28;20039;-63
2022/10/20 16:33:00;;;;;;;20.92;13.00;;;;;;;;;;8272079;28;20136;-62
2022/10/20 16:37:00;;;;;;;51.87;12.47;;;;;;;;;;8274049;28;20231;-62
2022/10/20 16:41:02;;;;;;;19.65;11.02;;;;;;;;;;8274211;28;20160;-62
2022/10/20 16:45:04;;;;;;;22.15;13.73;;;;;;;;;;8272207;28;20028;-63
2022/10/20 16:49:05;;;;;;;16.27;10.75;;;;;;;;;;8273526;28;20029;-62
2022/10/20 16:53:05;;;;;;;19.35;11.80;;;;;;;;;;8274105;28;20026;-63
2022/10/20 16:57:09;;;;;;;18.27;12.98;;;;;;;;;;8279427;28;20021;-62
2022/10/20 17:01:11;;;;;;;30.77;20.20;;;;;;;;;;8272789;28;20091;-62
2022/10/20 17:05:11;;;;;;;23.20;12.77;;;;;;;;;;8273162;28;20511;-63
2022/10/20 17:09:11;;;;;;;49.28;16.35;;;;;;;;;;8273012;28;20503;-62
2022/10/20 17:13:11;;;;;;;40.58;13.77;;;;;;;;;;8274105;28;20034;-63
2022/10/20 17:17:11;;;;;;;25.42;16.73;;;;;;;;;;8270813;28;20046;-63
2022/10/20 17:21:12;;;;;;;30.60;20.23;;;;;;;;;;8273289;28;20088;-62
2022/10/20 17:25:13;;;;;;;30.75;18.38;;;;;;;;;;8272044;28;20028;-62
2022/10/20 17:29:13;;;;;;;27.77;14.70;;;;;;;;;;8271228;28;20545;-63
2022/10/20 17:33:13;;;;;;;19.10;12.32;;;;;;;;;;8272010;28;20951;-62
2022/10/20 17:37:13;;;;;;;17.75;13.55;;;;;;;;;;8269957;28;20025;-62
2022/10/20 17:41:14;;;;;;;29.70;19.08;;;;;;;;;;8271862;28;20064;-62
2022/10/20 17:45:14;;;;;;;25.20;15.63;;;;;;;;;;8270692;28;20049;-62
2022/10/20 17:49:14;;;;;;;18.92;12.20;;;;;;;;;;8271559;28;20021;-63
2022/10/20 17:53:15;;;;;;;18.73;11.13;;;;;;;;;;8270711;28;20051;-62
2022/10/20 17:57:15;;;;;;;19.13;13.05;;;;;;;;;;8270430;28;20029;-62
2022/10/20 18:01:17;;;;;;;30.90;17.52;;;;;;;;;;8268010;28;20042;-63
2022/10/20 18:05:17;;;;;;;33.50;22.27;;;;;;;;;;8273073;28;20022;-62
2022/10/20 18:09:18;;;;;;;40.42;25.77;;;;;;;;;;8271234;28;20028;-62
2022/10/20 18:13:18;;;;;;;40.53;29.23;;;;;;;;;;8268856;28;20494;-62
2022/10/20 18:17:18;;;;;;;32.58;21.13;;;;;;;;;;8270162;28;20034;-62
2022/10/20 18:21:18;;;;;;;29.77;19.40;;;;;;;;;;8271154;28;20022;-62
2022/10/20 18:25:19;;;;;;;24.83;17.52;;;;;;;;;;8270839;28;20160;-62
2022/10/20 18:29:19;;;;;;;25.00;16.88;;;;;;;;;;8270014;28;20395;-62
2022/10/20 18:33:19;;;;;;;23.60;14.75;;;;;;;;;;8270294;28;20034;-63
2022/10/20 18:37:19;;;;;;;21.23;14.25;;;;;;;;;;8270893;28;20382;-62
2022/10/20 18:41:23;;;;;;;20.52;12.55;;;;;;;;;;8268968;28;20033;-62
2022/10/20 18:45:24;;;;;;;23.90;14.52;;;;;;;;;;8270015;28;20088;-62
2022/10/20 18:49:24;;;;;;;27.95;16.48;;;;;;;;;;8268000;28;20018;-62
2022/10/20 18:53:24;;;;;;;30.48;19.15;;;;;;;;;;8272152;28;20028;-62
2022/10/20 18:57:24;;;;;;;29.33;19.02;;;;;;;;;;8267367;28;20056;-62
2022/10/20 19:01:29;;;;;;;25.52;15.43;;;;;;;;;;8269774;28;20052;-62
2022/10/20 19:05:29;;;;;;;28.20;17.23;;;;;;;;;;8268298;28;20700;-62
2022/10/20 19:09:30;;;;;;;28.40;14.88;;;;;;;;;;8268401;28;20022;-62
2022/10/20 19:13:30;;;;;;;33.47;17.93;;;;;;;;;;8268857;28;20471;-63
2022/10/20 19:17:31;;;;;;;32.15;16.38;;;;;;;;;;8267133;28;20053;-63
2022/10/20 19:21:31;;;;;;;35.97;17.05;;;;;;;;;;8269591;28;20561;-62
2022/10/20 19:25:32;;;;;;;26.42;15.63;;;;;;;;;;8268029;28;20061;-62
2022/10/20 19:29:32;;;;;;;29.20;17.40;;;;;;;;;;8267227;28;20096;-62
2022/10/20 19:33:32;;;;;;;28.80;16.10;;;;;;;;;;8268863;28;20122;-62
2022/10/20 19:37:32;;;;;;;27.30;16.55;;;;;;;;;;8270356;28;20036;-63
2022/10/20 19:41:33;;;;;;;25.95;16.40;;;;;;;;;;8268421;28;20033;-62
2022/10/20 19:45:33;;;;;;;38.10;16.50;;;;;;;;;;8269207;28;20030;-62
2022/10/20 19:49:33;;;;;;;111.75;18.88;;;;;;;;;;8267198;28;20141;-62
2022/10/20 19:53:33;;;;;;;130.37;18.83;;;;;;;;;;8269621;28;20029;-62
2022/10/20 19:57:34;;;;;;;245.57;20.45;;;;;;;;;;8268898;28;20276;-62
2022/10/20 20:01:34;;;;;;;303.27;24.08;;;;;;;;;;8269171;28;20573;-63
2022/10/20 20:05:35;;;;;;;725.58;36.80;;;;;;;;;;8268522;28;20119;-63
2022/10/20 20:09:35;;;;;;;945.47;45.03;;;;;;;;;;8268620;28;20037;-62
2022/10/20 20:13:35;;;;;;;935.85;43.53;;;;;;;;;;8267385;28;20045;-62
2022/10/20 20:17:35;;;;;;;1220.03;50.58;;;;;;;;;;8267471;28;20063;-63
2022/10/20 20:21:36;;;;;;;1212.43;53.05;;;;;;;;;;8269053;28;20041;-63
2022/10/20 20:25:37;;;;;;;986.15;41.95;;;;;;;;;;8270337;28;20022;-62
2022/10/20 20:29:37;;;;;;;646.85;32.45;;;;;;;;;;8272791;28;20025;-63
2022/10/20 20:33:37;;;;;;;704.97;34.78;;;;;;;;;;8273373;28;20457;-63
2022/10/20 20:37:37;;;;;;;778.58;37.42;;;;;;;;;;8275325;28;20056;-63
2022/10/20 20:41:38;;;;;;;758.45;32.95;;;;;;;;;;8271913;28;20112;-63
2022/10/20 20:45:38;;;;;;;603.33;29.00;;;;;;;;;;8272944;28;20038;-63
2022/10/20 20:49:38;;;;;;;835.88;36.67;;;;;;;;;;8271741;28;20534;-62
2022/10/20 20:53:39;;;;;;;649.85;30.00;;;;;;;;;;8274961;28;20780;-62
2022/10/20 20:57:39;;;;;;;711.17;35.17;;;;;;;;;;8272763;28;20026;-63
2022/10/20 21:01:40;;;;;;;361.48;27.30;;;;;;;;;;8274612;28;20049;-63
2022/10/20 21:05:41;;;;;;;577.50;30.00;;;;;;;;;;8272179;28;20048;-63
2022/10/20 21:09:41;;;;;;;271.88;21.55;;;;;;;;;;8271768;28;20036;-62
2022/10/20 21:13:41;;;;;;;247.82;24.73;;;;;;;;;;8273872;28;20574;-62
2022/10/20 21:17:42;;;;;;;52.38;15.93;;;;;;;;;;8272086;28;20042;-63
2022/10/20 21:21:49;;;;;;;74.47;16.15;;;;;;;;;;8272324;28;20061;-63
2022/10/20 21:25:49;;;;;;;27.20;13.98;;;;;;;;;;8271867;28;20100;-63
2022/10/20 21:29:50;;;;;;;19.58;13.60;;;;;;;;;;8270768;28;20042;-63
2022/10/20 21:33:54;;;;;;;30.58;16.73;;;;;;;;;;8272181;28;20069;-63
2022/10/20 21:37:55;;;;;;;84.90;21.35;;;;;;;;;;8272369;28;20109;-63
2022/10/20 21:41:55;;;;;;;538.95;27.67;;;;;;;;;;8271489;28;20220;-63
2022/10/20 21:45:55;;;;;;;353.23;22.02;;;;;;;;;;8273134;28;20037;-63
2022/10/20 21:49:55;;;;;;;548.05;27.73;;;;;;;;;;8272759;28;20057;-62
2022/10/20 21:53:56;;;;;;;374.15;24.73;;;;;;;;;;8271734;28;20037;-63
2022/10/20 21:57:56;;;;;;;948.08;38.25;;;;;;;;;;8270802;28;20121;-63
2022/10/20 22:01:57;;;;;;;1015.83;40.05;;;;;;;;;;8269846;28;20036;-62
2022/10/20 22:06:00;;;;;;;1141.78;45.45;;;;;;;;;;8271272;28;20652;-62
2022/10/20 22:10:00;;;;;;;737.53;32.90;;;;;;;;;;8270795;28;20104;-62
2022/10/20 22:14:01;;;;;;;912.28;33.17;;;;;;;;;;8269186;28;20017;-63
2022/10/20 22:18:01;;;;;;;605.30;22.38;;;;;;;;;;8270102;28;20077;-63
2022/10/20 22:22:01;;;;;;;267.33;14.65;;;;;;;;;;8270544;28;20048;-62
2022/10/20 22:26:02;;;;;;;49.85;8.90;;;;;;;;;;8271199;28;20084;-63
2022/10/20 22:30:02;;;;;;;16.27;8.15;;;;;;;;;;8269839;28;20026;-63
2022/10/20 22:34:03;;;;;;;12.80;7.88;;;;;;;;;;8269930;28;20049;-63
2022/10/20 22:38:03;;;;;;;13.00;9.15;;;;;;;;;;8268936;28;20028;-62
2022/10/20 22:42:03;;;;;;;14.07;8.20;;;;;;;;;;8268658;28;20734;-62
2022/10/20 22:46:03;;;;;;;11.90;7.53;;;;;;;;;;8270273;28;20493;-63
2022/10/20 22:50:04;;;;;;;15.73;7.03;;;;;;;;;;8267389;28;20065;-63
2022/10/20 22:54:04;;;;;;;10.75;5.07;;;;;;;;;;8271274;28;20961;-63
2022/10/20 22:58:04;;;;;;;8.90;5.17;;;;;;;;;;8269033;28;20564;-63
2022/10/20 23:02:04;;;;;;;10.50;4.55;;;;;;;;;;8269819;28;21081;-62
2022/10/20 23:06:08;;;;;;;8.68;3.30;;;;;;;;;;8269962;28;20481;-63
2022/10/20 23:10:09;;;;;;;9.30;2.30;;;;;;;;;;8270227;28;20017;-63
2022/10/20 23:14:09;;;;;;;5.40;2.10;;;;;;;;;;8270149;28;20030;-63
2022/10/20 23:18:09;;;;;;;3.30;2.20;;;;;;;;;;8270108;28;20276;-62
2022/10/20 23:22:09;;;;;;;4.93;2.30;;;;;;;;;;8269622;28;20568;-63
2022/10/20 23:26:09;;;;;;;5.05;1.80;;;;;;;;;;8268143;28;20779;-63
2022/10/20 23:30:10;;;;;;;8.83;4.77;;;;;;;;;;8267660;28;20225;-63
2022/10/20 23:34:10;;;;;;;556.22;20.60;;;;;;;;;;8267830;28;20284;-63